createdAt,value
2023-02-28T00:00:29.573Z,5.81
2023-02-28T00:02:56.148Z,5.38
2023-02-28T00:05:24.499Z,5.64
2023-02-28T00:07:51.632Z,5.61
2023-02-28T00:10:25.774Z,5.50
2023-02-28T00:12:53.670Z,5.06
2023-02-28T00:15:21.271Z,5.13
2023-02-28T00:17:47.880Z,5.32
2023-02-28T00:20:14.547Z,5.49
2023-02-28T00:22:43.216Z,5.49
2023-02-28T00:25:11.648Z,5.50
2023-02-28T00:27:39.145Z,5.49
2023-02-28T00:30:09.581Z,5.49
2023-02-28T00:32:36.409Z,5.39
2023-02-28T00:35:04.004Z,5.39
2023-02-28T00:37:30.524Z,5.48
2023-02-28T00:39:57.522Z,5.33
2023-02-28T00:42:25.081Z,4.97
2023-02-28T00:44:51.759Z,5.39
2023-02-28T00:47:18.215Z,5.31
2023-02-28T00:49:45.055Z,5.36
2023-02-28T00:52:11.720Z,5.31
2023-02-28T00:54:38.179Z,4.82
2023-02-28T00:57:04.691Z,5.22
2023-02-28T00:59:31.269Z,5.04
2023-02-28T01:01:57.753Z,4.73
2023-02-28T01:04:24.236Z,4.56
2023-02-28T01:06:50.722Z,4.68
2023-02-28T01:09:17.208Z,5.08
2023-02-28T01:11:45.055Z,5.07
2023-02-28T01:14:16.723Z,4.94
2023-02-28T01:16:43.547Z,4.85
2023-02-28T01:19:10.321Z,5.06
2023-02-28T01:21:37.420Z,4.92
2023-02-28T01:24:05.351Z,5.03
2023-02-28T01:26:32.505Z,4.58
2023-02-28T01:28:59.302Z,4.98
2023-02-28T01:31:26.466Z,4.56
2023-02-28T01:33:53.293Z,4.70
2023-02-28T01:36:22.976Z,4.97
2023-02-28T01:38:49.772Z,5.00
2023-02-28T01:41:22.671Z,5.04
2023-02-28T01:43:49.117Z,5.03
2023-02-28T01:46:16.939Z,5.06
2023-02-28T01:48:52.524Z,5.19
2023-02-28T01:51:30.031Z,5.09
2023-02-28T01:54:07.944Z,5.13
2023-02-28T01:56:37.755Z,5.19
2023-02-28T01:59:04.652Z,4.91
2023-02-28T02:01:32.292Z,5.03
2023-02-28T02:04:02.619Z,4.65
2023-02-28T02:06:34.075Z,4.63
2023-02-28T02:09:00.533Z,4.99
2023-02-28T02:11:30.744Z,4.72
2023-02-28T02:14:19.243Z,4.98
2023-02-28T02:16:57.873Z,5.04
2023-02-28T02:19:42.531Z,5.09
2023-02-28T02:22:33.461Z,5.06
2023-02-28T02:25:19.830Z,4.72
2023-02-28T02:28:13.904Z,4.85
2023-02-28T02:31:15.135Z,4.65
2023-02-28T02:33:47.457Z,4.74
2023-02-28T02:36:28.541Z,4.06
2023-02-28T02:39:07.097Z,4.51
2023-02-28T02:41:45.422Z,4.40
2023-02-28T02:44:24.115Z,4.32
2023-02-28T02:46:56.361Z,3.99
2023-02-28T02:49:28.315Z,4.25
2023-02-28T02:51:57.650Z,4.17
2023-02-28T02:54:38.976Z,4.08
2023-02-28T02:57:10.236Z,4.03
2023-02-28T02:59:39.940Z,3.60
2023-02-28T03:02:11.180Z,3.75
2023-02-28T03:04:44.655Z,3.84
2023-02-28T03:07:11.114Z,3.76
2023-02-28T03:09:37.767Z,3.76
2023-02-28T03:12:04.867Z,3.55
2023-02-28T03:15:12.218Z,3.58
2023-02-28T03:18:05.372Z,3.64
2023-02-28T03:20:44.368Z,3.13
2023-02-28T03:23:24.672Z,3.47
2023-02-28T03:25:54.826Z,3.47
2023-02-28T03:28:52.439Z,3.42
2023-02-28T03:31:39.699Z,3.31
2023-02-28T03:34:15.128Z,3.32
2023-02-28T03:36:51.231Z,3.26
2023-02-28T03:39:23.361Z,3.12
2023-02-28T03:42:00.938Z,3.08
2023-02-28T03:44:35.112Z,3.19
2023-02-28T03:47:29.973Z,3.22
2023-02-28T03:50:07.879Z,3.14
2023-02-28T03:52:39.998Z,3.10
2023-02-28T03:55:12.455Z,3.02
2023-02-28T03:58:21.385Z,2.80
2023-02-28T04:00:55.314Z,2.37
2023-02-28T04:03:21.902Z,2.66
2023-02-28T04:05:53.197Z,2.56
2023-02-28T04:08:20.613Z,2.41
2023-02-28T04:10:54.348Z,2.35
2023-02-28T04:13:21.284Z,2.52
2023-02-28T04:15:47.793Z,2.57
2023-02-28T04:18:14.272Z,2.52
2023-02-28T04:20:40.828Z,2.43
2023-02-28T04:23:07.335Z,1.92
2023-02-28T04:25:33.847Z,2.21
2023-02-28T04:28:00.309Z,2.22
2023-02-28T04:30:26.941Z,1.94
2023-02-28T04:32:53.469Z,1.71
2023-02-28T04:35:19.963Z,2.01
2023-02-28T04:37:46.393Z,2.01
2023-02-28T04:40:13.090Z,1.98
2023-02-28T04:42:39.565Z,1.95
2023-02-28T04:45:06.638Z,1.78
2023-02-28T04:47:33.149Z,1.59
2023-02-28T04:49:59.672Z,1.68
2023-02-28T04:52:28.077Z,1.79
2023-02-28T04:54:54.514Z,1.75
2023-02-28T04:57:21.042Z,1.62
2023-02-28T04:59:47.563Z,1.80
2023-02-28T05:02:14.154Z,1.81
2023-02-28T05:04:40.651Z,1.77
2023-02-28T05:07:07.235Z,1.72
2023-02-28T05:09:34.252Z,1.65
2023-02-28T05:12:00.770Z,1.63
2023-02-28T05:14:27.532Z,1.55
2023-02-28T05:16:53.986Z,1.47
2023-02-28T05:19:22.293Z,1.59
2023-02-28T05:21:54.801Z,1.65
2023-02-28T05:24:23.747Z,1.68
2023-02-28T05:26:53.062Z,1.55
2023-02-28T05:29:20.204Z,1.57
2023-02-28T05:31:46.887Z,1.14
2023-02-28T05:34:13.717Z,1.70
2023-02-28T05:36:40.661Z,1.62
2023-02-28T05:39:08.586Z,1.51
2023-02-28T05:41:35.109Z,1.65
2023-02-28T05:44:02.384Z,1.41
2023-02-28T05:46:28.892Z,1.69
2023-02-28T05:48:56.860Z,1.52
2023-02-28T05:51:23.380Z,1.12
2023-02-28T05:53:50.524Z,1.16
2023-02-28T05:56:17.025Z,1.44
2023-02-28T05:58:43.712Z,1.48
2023-02-28T06:01:33.510Z,1.55
2023-02-28T06:04:04.441Z,0.91
2023-02-28T06:06:31.232Z,0.52
2023-02-28T06:08:58.321Z,1.37
2023-02-28T06:11:28.798Z,1.17
2023-02-28T06:13:57.569Z,1.35
2023-02-28T06:16:25.271Z,1.33
2023-02-28T06:18:51.850Z,1.42
2023-02-28T06:21:18.294Z,1.45
2023-02-28T06:23:45.061Z,1.55
2023-02-28T06:26:12.092Z,0.92
2023-02-28T06:28:38.660Z,0.73
2023-02-28T06:31:10.403Z,1.40
2023-02-28T06:33:38.792Z,1.10
2023-02-28T06:36:06.683Z,1.36
2023-02-28T06:38:33.498Z,1.55
2023-02-28T06:41:01.761Z,1.58
2023-02-28T06:43:34.538Z,1.68
2023-02-28T06:46:03.024Z,1.69
2023-02-28T06:48:30.295Z,1.59
2023-02-28T06:51:06.600Z,1.13
2023-02-28T06:53:34.107Z,1.56
2023-02-28T06:56:00.677Z,1.63
2023-02-28T06:58:27.191Z,1.70
2023-02-28T07:00:54.188Z,1.87
2023-02-28T07:03:20.925Z,1.90
2023-02-28T07:05:47.457Z,2.05
2023-02-28T07:08:14.922Z,1.98
2023-02-28T07:10:42.034Z,1.86
2023-02-28T07:13:09.693Z,2.21
2023-02-28T07:15:40.657Z,2.17
2023-02-28T07:18:08.205Z,2.19
2023-02-28T07:20:34.735Z,2.13
2023-02-28T07:23:01.558Z,2.49
2023-02-28T07:25:29.691Z,2.58
2023-02-28T07:27:57.498Z,2.43
2023-02-28T07:30:24.055Z,2.66
2023-02-28T07:32:50.567Z,2.67
2023-02-28T07:35:17.291Z,2.44
2023-02-28T07:37:43.840Z,2.36
2023-02-28T07:40:14.964Z,2.84
2023-02-28T07:42:42.750Z,2.81
2023-02-28T07:45:12.702Z,2.70
2023-02-28T07:47:40.209Z,3.23
2023-02-28T07:50:10.161Z,3.20
2023-02-28T07:52:38.166Z,3.12
2023-02-28T07:55:06.143Z,3.59
2023-02-28T07:57:35.799Z,3.28
2023-02-28T08:00:05.025Z,3.73
2023-02-28T08:02:31.466Z,3.80
2023-02-28T08:04:57.943Z,3.80
2023-02-28T08:07:24.501Z,3.87
2023-02-28T08:09:51.011Z,3.99
2023-02-28T08:12:17.728Z,3.78
2023-02-28T08:14:44.596Z,3.94
2023-02-28T08:17:11.726Z,3.97
2023-02-28T08:19:38.582Z,3.74
2023-02-28T08:22:05.161Z,3.99
2023-02-28T08:24:31.724Z,4.39
2023-02-28T08:26:58.167Z,4.17
2023-02-28T08:29:24.745Z,4.51
2023-02-28T08:31:51.347Z,4.66
2023-02-28T08:34:18.283Z,4.70
2023-02-28T08:36:46.792Z,4.69
2023-02-28T08:39:13.947Z,4.69
2023-02-28T08:41:40.640Z,4.61
2023-02-28T08:44:07.132Z,5.14
2023-02-28T08:46:33.602Z,5.28
2023-02-28T08:49:02.434Z,5.38
2023-02-28T08:51:30.268Z,5.16
2023-02-28T08:54:00.857Z,5.58
2023-02-28T08:56:28.813Z,5.43
2023-02-28T08:58:57.482Z,5.60
2023-02-28T09:01:29.977Z,5.94
2023-02-28T09:03:57.863Z,6.42
2023-02-28T09:06:28.106Z,6.25
2023-02-28T09:08:59.704Z,6.63
2023-02-28T09:11:26.652Z,6.61
2023-02-28T09:13:53.240Z,7.14
2023-02-28T09:16:20.838Z,7.27
2023-02-28T09:18:47.655Z,7.70
2023-02-28T09:21:16.983Z,6.88
2023-02-28T09:23:45.357Z,7.33
2023-02-28T09:26:20.331Z,7.15
2023-02-28T09:28:47.221Z,7.17
2023-02-28T09:31:16.373Z,7.27
2023-02-28T09:33:43.487Z,7.50
2023-02-28T09:36:10.196Z,7.15
2023-02-28T09:38:36.889Z,7.10
2023-02-28T09:41:12.338Z,6.97
2023-02-28T09:43:44.549Z,7.51
2023-02-28T09:46:32.727Z,7.56
2023-02-28T09:49:03.024Z,8.25
2023-02-28T09:51:39.106Z,8.91
2023-02-28T09:54:06.010Z,9.84
2023-02-28T09:56:38.762Z,12.64
2023-02-28T09:59:24.243Z,15.34
2023-02-28T10:02:38.952Z,17.89
2023-02-28T10:05:14.192Z,19.33
2023-02-28T10:07:58.530Z,19.05
2023-02-28T10:10:34.605Z,19.84
2023-02-28T10:13:05.924Z,23.27
2023-02-28T10:15:35.395Z,25.04
2023-02-28T10:18:09.199Z,23.59
2023-02-28T10:20:41.074Z,24.53
2023-02-28T10:23:24.915Z,21.76
2023-02-28T10:25:58.456Z,23.50
2023-02-28T10:28:26.572Z,24.95
2023-02-28T10:30:54.857Z,24.09
2023-02-28T10:33:25.858Z,25.84
2023-02-28T10:35:53.949Z,25.28
2023-02-28T10:38:27.100Z,25.68
2023-02-28T10:41:05.757Z,26.35
2023-02-28T10:43:32.366Z,23.02
2023-02-28T10:46:11.058Z,23.82
2023-02-28T10:48:46.058Z,24.07
2023-02-28T10:51:15.218Z,24.41
2023-02-28T10:54:01.639Z,23.70
2023-02-28T10:56:29.052Z,22.68
2023-02-28T10:59:05.045Z,21.97
2023-02-28T11:01:31.818Z,21.50
2023-02-28T11:03:58.883Z,20.15
2023-02-28T11:06:32.160Z,20.38
2023-02-28T11:09:04.129Z,19.02
2023-02-28T11:11:42.228Z,20.15
2023-02-28T11:14:22.049Z,20.21
2023-02-28T11:16:50.903Z,20.91
2023-02-28T11:19:24.493Z,21.65
2023-02-28T11:21:58.034Z,22.60
2023-02-28T11:24:40.850Z,21.75
2023-02-28T11:27:08.571Z,19.87
2023-02-28T11:29:35.999Z,20.92
2023-02-28T11:32:02.559Z,20.96
2023-02-28T11:34:29.875Z,20.83
2023-02-28T11:36:59.524Z,22.02
2023-02-28T11:39:27.498Z,23.02
2023-02-28T11:42:26.867Z,23.17
2023-02-28T11:45:12.387Z,22.58
2023-02-28T11:48:05.600Z,21.80
2023-02-28T11:50:56.475Z,22.05
2023-02-28T11:53:51.549Z,21.63
2023-02-28T11:56:37.338Z,18.90
2023-02-28T11:59:25.775Z,18.77
2023-02-28T12:01:58.315Z,20.21
2023-02-28T12:04:47.304Z,21.06
2023-02-28T12:07:29.134Z,21.80
2023-02-28T12:10:11.460Z,22.68
2023-02-28T12:13:00.988Z,24.02
2023-02-28T12:15:33.619Z,24.65
2023-02-28T12:18:14.481Z,23.47
2023-02-28T12:20:54.950Z,21.29
2023-02-28T12:23:55.980Z,17.44
2023-02-28T12:26:43.591Z,19.45
2023-02-28T12:29:29.725Z,21.52
2023-02-28T12:32:04.880Z,22.66
2023-02-28T12:34:47.314Z,23.15
2023-02-28T12:37:32.575Z,23.64
2023-02-28T12:40:09.554Z,22.89
2023-02-28T12:42:42.142Z,23.03
2023-02-28T12:45:15.510Z,21.02
2023-02-28T12:47:45.630Z,23.72
2023-02-28T12:50:12.984Z,23.69
2023-02-28T12:53:20.142Z,21.75
2023-02-28T12:56:11.351Z,23.59
2023-02-28T12:58:48.955Z,24.13
2023-02-28T13:01:28.957Z,24.56
2023-02-28T13:04:07.779Z,24.03
2023-02-28T13:06:53.061Z,22.21
2023-02-28T13:09:20.610Z,21.71
2023-02-28T13:11:52.190Z,21.60
2023-02-28T13:14:37.625Z,20.59
2023-02-28T13:17:10.116Z,20.70
2023-02-28T13:19:48.732Z,20.73
2023-02-28T13:22:45.254Z,21.75
2023-02-28T13:25:23.740Z,21.78
2023-02-28T13:27:57.446Z,21.63
2023-02-28T13:31:03.338Z,20.85
2023-02-28T13:33:31.497Z,19.00
2023-02-28T13:36:19.277Z,18.85
2023-02-28T13:38:50.083Z,18.94
2023-02-28T13:41:33.256Z,18.53
2023-02-28T13:44:11.378Z,17.03
2023-02-28T13:46:57.786Z,15.00
2023-02-28T13:49:24.271Z,14.69
2023-02-28T13:51:53.036Z,13.90
2023-02-28T13:54:29.131Z,13.79
2023-02-28T13:57:27.189Z,13.25
2023-02-28T14:00:15.412Z,12.60
2023-02-28T14:02:52.484Z,11.55
2023-02-28T14:05:26.730Z,12.26
2023-02-28T14:07:57.085Z,12.83
2023-02-28T14:10:40.646Z,14.44
2023-02-28T14:13:20.251Z,16.16
2023-02-28T14:15:49.526Z,16.99
2023-02-28T14:18:21.958Z,16.10
2023-02-28T14:20:52.037Z,16.83
2023-02-28T14:23:53.322Z,17.72
2023-02-28T14:26:57.213Z,17.74
2023-02-28T14:29:29.761Z,19.65
2023-02-28T14:32:05.032Z,20.16
2023-02-28T14:34:51.910Z,21.17
2023-02-28T14:37:25.997Z,19.80
2023-02-28T14:39:52.700Z,18.54
2023-02-28T14:42:38.670Z,17.16
2023-02-28T14:45:06.018Z,15.99
2023-02-28T14:47:34.832Z,16.13
2023-02-28T14:50:04.741Z,16.14
2023-02-28T14:52:33.587Z,15.98
2023-02-28T14:55:04.325Z,17.72
2023-02-28T14:57:33.836Z,19.43
2023-02-28T15:00:01.733Z,19.92
2023-02-28T15:02:35.347Z,20.84
2023-02-28T15:05:17.662Z,22.40
2023-02-28T15:07:45.857Z,24.01
2023-02-28T15:10:18.774Z,24.75
2023-02-28T15:13:05.652Z,24.38
2023-02-28T15:16:03.518Z,25.53
2023-02-28T15:18:49.370Z,25.15
2023-02-28T15:21:21.915Z,24.37
2023-02-28T15:24:00.706Z,24.50
2023-02-28T15:26:32.336Z,24.16
2023-02-28T15:29:02.344Z,25.09
2023-02-28T15:31:43.823Z,23.45
2023-02-28T15:34:23.220Z,20.24
2023-02-28T15:36:51.205Z,18.03
2023-02-28T15:39:21.357Z,16.19
2023-02-28T15:41:47.982Z,15.35
2023-02-28T15:44:25.485Z,14.77
2023-02-28T15:47:00.100Z,13.98
2023-02-28T15:49:27.045Z,13.00
2023-02-28T15:51:56.297Z,12.76
2023-02-28T15:54:28.585Z,12.41
2023-02-28T15:56:58.143Z,12.27
2023-02-28T15:59:30.540Z,12.13
2023-02-28T16:02:19.015Z,11.62
2023-02-28T16:05:08.832Z,11.26
2023-02-28T16:07:45.124Z,11.09
2023-02-28T16:10:15.333Z,10.93
2023-02-28T16:12:43.093Z,10.82
2023-02-28T16:15:19.798Z,10.60
2023-02-28T16:17:47.767Z,9.54
2023-02-28T16:20:15.653Z,9.68
2023-02-28T16:22:43.161Z,9.72
2023-02-28T16:25:18.406Z,9.20
2023-02-28T16:27:59.401Z,8.84
2023-02-28T16:30:29.572Z,9.29
2023-02-28T16:35:38.557Z,9.49
2023-02-28T16:38:07.450Z,9.35
2023-02-28T16:40:36.235Z,9.30
2023-02-28T16:43:08.452Z,9.20
2023-02-28T16:45:35.020Z,9.09
2023-02-28T16:48:01.848Z,8.60
2023-02-28T16:50:30.761Z,8.83
2023-02-28T16:52:57.485Z,8.83
2023-02-28T16:55:26.121Z,8.29
2023-02-28T16:57:58.420Z,8.14
2023-02-28T17:00:26.343Z,8.29
2023-02-28T17:02:53.062Z,8.35
2023-02-28T17:05:20.098Z,8.31
2023-02-28T17:07:47.487Z,8.15
2023-02-28T17:10:20.500Z,8.04
2023-02-28T17:12:47.174Z,7.85
2023-02-28T17:15:15.567Z,7.85
2023-02-28T17:17:43.277Z,7.81
2023-02-28T17:20:18.811Z,7.70
2023-02-28T17:22:45.432Z,7.28
2023-02-28T17:25:12.194Z,7.40
2023-02-28T17:27:38.659Z,7.55
2023-02-28T17:30:15.971Z,7.50
2023-02-28T17:32:42.799Z,7.47
2023-02-28T17:35:13.647Z,7.41
2023-02-28T17:37:40.309Z,7.34
2023-02-28T17:40:12.307Z,7.21
2023-02-28T17:42:38.836Z,7.17
2023-02-28T17:45:05.771Z,7.09
2023-02-28T17:47:32.323Z,7.05
2023-02-28T17:49:58.782Z,6.93
2023-02-28T17:52:25.410Z,6.87
2023-02-28T17:54:51.957Z,6.75
2023-02-28T17:57:18.549Z,6.14
2023-02-28T17:59:45.089Z,6.71
2023-02-28T18:02:14.499Z,6.72
2023-02-28T18:04:41.122Z,6.37
2023-02-28T18:07:11.623Z,6.67
2023-02-28T18:09:38.459Z,6.60
2023-02-28T18:12:05.284Z,6.16
2023-02-28T18:14:32.257Z,6.44
2023-02-28T18:16:59.543Z,6.14
2023-02-28T18:19:26.219Z,6.15
2023-02-28T18:21:54.021Z,6.27
2023-02-28T18:24:23.022Z,6.19
2023-02-28T18:26:49.501Z,6.16
2023-02-28T18:29:24.698Z,6.11
2023-02-28T18:31:52.012Z,5.93
2023-02-28T18:34:18.718Z,5.92
2023-02-28T18:36:47.221Z,6.01
2023-02-28T18:39:15.285Z,5.85
2023-02-28T18:41:42.284Z,5.47
2023-02-28T18:44:19.017Z,5.57
2023-02-28T18:46:46.598Z,5.59
2023-02-28T18:49:13.466Z,5.51
2023-02-28T18:51:40.484Z,5.42
2023-02-28T18:54:07.262Z,5.15
2023-02-28T18:56:33.766Z,5.41
2023-02-28T18:59:02.551Z,5.36
2023-02-28T19:01:32.045Z,5.00
2023-02-28T19:04:03.737Z,4.80
2023-02-28T19:06:31.986Z,5.02
2023-02-28T19:09:00.946Z,4.96
2023-02-28T19:11:28.222Z,4.73
2023-02-28T19:13:54.768Z,5.05
2023-02-28T19:16:22.655Z,4.68
2023-02-28T19:18:49.618Z,4.93
2023-02-28T19:21:18.833Z,4.97
2023-02-28T19:23:45.465Z,5.03
2023-02-28T19:26:19.924Z,4.95
2023-02-28T19:28:46.616Z,4.87
2023-02-28T19:31:19.994Z,4.80
2023-02-28T19:33:46.782Z,4.62
2023-02-28T19:36:15.165Z,4.55
2023-02-28T19:38:42.206Z,4.40
2023-02-28T19:41:11.023Z,4.30
2023-02-28T19:43:37.576Z,4.55
2023-02-28T19:46:05.103Z,4.56
2023-02-28T19:48:31.647Z,3.17
2023-02-28T19:51:01.466Z,3.79
2023-02-28T19:53:30.724Z,4.34
2023-02-28T19:55:57.359Z,4.42
2023-02-28T19:58:24.073Z,4.41
2023-02-28T20:00:50.688Z,3.99
2023-02-28T20:03:18.610Z,4.33
2023-02-28T20:05:46.361Z,4.02
2023-02-28T20:08:14.125Z,3.99
2023-02-28T20:10:40.646Z,4.05
2023-02-28T20:13:07.360Z,3.68
2023-02-28T20:15:33.895Z,4.11
2023-02-28T20:18:00.538Z,4.11
2023-02-28T20:20:27.384Z,4.02
2023-02-28T20:22:53.905Z,3.83
2023-02-28T20:25:20.945Z,2.84
2023-02-28T20:27:47.418Z,3.59
2023-02-28T20:30:14.035Z,3.50
2023-02-28T20:32:40.578Z,3.67
2023-02-28T20:35:08.925Z,3.41
2023-02-28T20:37:35.394Z,3.10
2023-02-28T20:40:04.458Z,3.09
2023-02-28T20:42:31.104Z,3.01
2023-02-28T20:44:57.826Z,3.29
2023-02-28T20:47:24.354Z,2.58
2023-02-28T20:49:50.932Z,3.22
2023-02-28T20:52:17.397Z,3.16
2023-02-28T20:54:44.389Z,3.38
2023-02-28T20:57:10.904Z,3.24
2023-02-28T20:59:38.805Z,2.92
2023-02-28T21:02:05.867Z,3.26
2023-02-28T21:04:32.454Z,2.96
2023-02-28T21:06:59.117Z,2.50
2023-02-28T21:09:25.756Z,3.10
2023-02-28T21:11:54.181Z,3.20
2023-02-28T21:14:20.994Z,2.89
2023-02-28T21:16:47.605Z,3.06
2023-02-28T21:19:14.459Z,2.93
2023-02-28T21:21:44.094Z,2.58
2023-02-28T21:24:12.637Z,3.08
2023-02-28T21:26:41.001Z,2.95
2023-02-28T21:29:07.953Z,3.09
2023-02-28T21:31:35.837Z,3.08
2023-02-28T21:34:04.387Z,3.01
2023-02-28T21:36:35.519Z,2.94
2023-02-28T21:39:08.214Z,2.81
2023-02-28T21:41:35.297Z,2.67
2023-02-28T21:44:01.902Z,2.72
2023-02-28T21:46:29.912Z,2.62
2023-02-28T21:48:57.627Z,2.73
2023-02-28T21:51:31.308Z,2.63
2023-02-28T21:53:59.497Z,2.24
2023-02-28T21:56:28.717Z,2.55
2023-02-28T21:59:01.669Z,2.46
2023-02-28T22:01:31.257Z,2.17
2023-02-28T22:03:59.264Z,2.27
2023-02-28T22:06:31.720Z,2.11
2023-02-28T22:09:02.064Z,2.58
2023-02-28T22:11:29.118Z,2.37
2023-02-28T22:13:57.929Z,2.49
2023-02-28T22:16:28.123Z,2.55
2023-02-28T22:18:56.905Z,2.53
2023-02-28T22:21:24.064Z,2.20
2023-02-28T22:23:51.106Z,2.42
2023-02-28T22:26:21.778Z,2.10
2023-02-28T22:28:48.974Z,2.48
2023-02-28T22:31:22.207Z,2.26
2023-02-28T22:33:49.977Z,2.12
2023-02-28T22:36:18.459Z,2.24
2023-02-28T22:38:46.562Z,2.10
2023-02-28T22:41:13.491Z,2.25
2023-02-28T22:43:41.419Z,2.18
2023-02-28T22:46:09.849Z,2.06
2023-02-28T22:48:37.161Z,2.16
2023-02-28T22:51:06.079Z,2.19
2023-02-28T22:53:34.093Z,2.26
2023-02-28T22:56:00.656Z,2.21
2023-02-28T22:58:27.729Z,2.20
2023-02-28T23:00:54.928Z,2.13
2023-02-28T23:03:26.225Z,2.23
2023-02-28T23:05:53.462Z,1.95
2023-02-28T23:08:23.371Z,1.89
2023-02-28T23:10:50.899Z,2.05
2023-02-28T23:13:20.925Z,2.08
2023-02-28T23:15:48.000Z,2.03
2023-02-28T23:18:15.638Z,1.81
2023-02-28T23:20:42.150Z,1.78
2023-02-28T23:23:10.188Z,1.58
2023-02-28T23:25:40.503Z,1.82
2023-02-28T23:28:08.362Z,1.57
2023-02-28T23:30:36.683Z,1.39
2023-02-28T23:33:05.063Z,1.42
2023-02-28T23:35:33.304Z,1.55
2023-02-28T23:37:59.777Z,1.67
2023-02-28T23:40:26.374Z,1.55
2023-02-28T23:42:53.681Z,1.48
2023-02-28T23:45:20.594Z,1.95
2023-02-28T23:47:47.167Z,1.94
2023-02-28T23:50:14.046Z,1.55
2023-02-28T23:52:40.653Z,1.81
2023-02-28T23:55:07.440Z,1.79
2023-02-28T23:57:34.884Z,1.38
